Selma, Texas
Current Conditions -  °F | °C
As of 4:58 AM on Tuesday 21 Oct 2014 (Local Time) from KRND Reporting Station
Clear Clear  
Wind Chill: 61°   Ceiling: Unl
Heat Index: 61°   Visibility: 10mi
Dew Point: 57°   Wind: 3mph
Humidity: 87%   Direction: 340°NNW
Pressure: 30.02"   Gusts: NA
Location:  29.5872°N, 98.2801°W
Report Text: KRND 210958Z AUTO 34003KT 10SM CLR 16/14 A3002 RMK AO2 SLP160 T01590138
Loading
Personal Weather Stations






























Interactive Weather Map
Tropical Storm Tracking
New forecast layout! Learn more

10-Day Weather Forecast

Advertisements
Track Severe Weather on mobile